sensor_id;sensor_type;location;lat;lon;timestamp;temperature;humidity
10316;DHT22;5203;48.976;8.306;2024-01-06T00:01:25;5.10;99.90
10316;DHT22;5203;48.976;8.306;2024-01-06T00:03:50;5.10;99.90
10316;DHT22;5203;48.976;8.306;2024-01-06T00:06:16;5.10;99.90
10316;DHT22;5203;48.976;8.306;2024-01-06T00:08:41;5.10;99.90
10316;DHT22;5203;48.976;8.306;2024-01-06T00:11:07;5.00;99.90
10316;DHT22;5203;48.976;8.306;2024-01-06T00:13:33;5.10;99.90
10316;DHT22;5203;48.976;8.306;2024-01-06T00:16:00;5.00;99.90
10316;DHT22;5203;48.976;8.306;2024-01-06T00:18:26;5.00;99.90
10316;DHT22;5203;48.976;8.306;2024-01-06T00:20:52;5.00;99.90
10316;DHT22;5203;48.976;8.306;2024-01-06T00:23:18;5.00;99.90
10316;DHT22;5203;48.976;8.306;2024-01-06T00:25:44;4.90;99.90
10316;DHT22;5203;48.976;8.306;2024-01-06T00:28:09;4.90;99.90
10316;DHT22;5203;48.976;8.306;2024-01-06T00:30:35;4.90;99.90
10316;DHT22;5203;48.976;8.306;2024-01-06T00:33:01;4.90;99.90
10316;DHT22;5203;48.976;8.306;2024-01-06T00:35:26;4.90;99.90
10316;DHT22;5203;48.976;8.306;2024-01-06T00:37:52;4.90;99.90
10316;DHT22;5203;48.976;8.306;2024-01-06T00:40:17;4.90;99.90
10316;DHT22;5203;48.976;8.306;2024-01-06T00:42:45;4.90;99.90
10316;DHT22;5203;48.976;8.306;2024-01-06T00:45:10;4.90;99.90
10316;DHT22;5203;48.976;8.306;2024-01-06T00:47:36;4.90;99.90
10316;DHT22;5203;48.976;8.306;2024-01-06T00:50:01;4.90;99.90
10316;DHT22;5203;48.976;8.306;2024-01-06T00:52:27;4.80;99.90
10316;DHT22;5203;48.976;8.306;2024-01-06T00:54:53;4.80;99.90
10316;DHT22;5203;48.976;8.306;2024-01-06T00:57:18;4.80;99.90
10316;DHT22;5203;48.976;8.306;2024-01-06T00:59:49;4.80;99.90
10316;DHT22;5203;48.976;8.306;2024-01-06T01:02:15;4.80;99.90
10316;DHT22;5203;48.976;8.306;2024-01-06T01:04:40;4.80;99.90
10316;DHT22;5203;48.976;8.306;2024-01-06T01:07:06;4.80;99.90
10316;DHT22;5203;48.976;8.306;2024-01-06T01:09:31;4.80;99.90
10316;DHT22;5203;48.976;8.306;2024-01-06T01:11:57;4.80;99.90
10316;DHT22;5203;48.976;8.306;2024-01-06T01:14:23;4.80;99.90
10316;DHT22;5203;48.976;8.306;2024-01-06T01:16:48;4.70;99.90
10316;DHT22;5203;48.976;8.306;2024-01-06T01:19:14;4.70;99.90
10316;DHT22;5203;48.976;8.306;2024-01-06T01:21:39;4.70;99.90
10316;DHT22;5203;48.976;8.306;2024-01-06T01:24:05;4.70;99.90
10316;DHT22;5203;48.976;8.306;2024-01-06T01:26:31;4.70;99.90
10316;DHT22;5203;48.976;8.306;2024-01-06T01:28:56;4.70;99.90
10316;DHT22;5203;48.976;8.306;2024-01-06T01:31:22;4.70;99.90
10316;DHT22;5203;48.976;8.306;2024-01-06T01:33:47;4.70;99.90
10316;DHT22;5203;48.976;8.306;2024-01-06T01:36:13;4.70;99.90
10316;DHT22;5203;48.976;8.306;2024-01-06T01:38:39;4.80;99.90
10316;DHT22;5203;48.976;8.306;2024-01-06T01:41:04;4.80;99.90
10316;DHT22;5203;48.976;8.306;2024-01-06T01:43:30;4.80;99.90
10316;DHT22;5203;48.976;8.306;2024-01-06T01:45:57;4.80;99.90
10316;DHT22;5203;48.976;8.306;2024-01-06T01:48:24;4.80;99.90
10316;DHT22;5203;48.976;8.306;2024-01-06T01:50:53;4.70;99.90
10316;DHT22;5203;48.976;8.306;2024-01-06T01:53:19;4.60;99.90
10316;DHT22;5203;48.976;8.306;2024-01-06T01:55:47;4.70;99.90
10316;DHT22;5203;48.976;8.306;2024-01-06T01:58:14;4.60;99.90
10316;DHT22;5203;48.976;8.306;2024-01-06T02:00:41;4.60;99.90
10316;DHT22;5203;48.976;8.306;2024-01-06T02:03:07;4.60;99.90
10316;DHT22;5203;48.976;8.306;2024-01-06T02:05:34;4.60;99.90
10316;DHT22;5203;48.976;8.306;2024-01-06T02:08:00;4.60;99.90
10316;DHT22;5203;48.976;8.306;2024-01-06T02:10:26;4.60;99.90
10316;DHT22;5203;48.976;8.306;2024-01-06T02:12:52;4.60;99.90
10316;DHT22;5203;48.976;8.306;2024-01-06T02:15:18;4.60;99.90
10316;DHT22;5203;48.976;8.306;2024-01-06T02:17:44;4.50;99.90
10316;DHT22;5203;48.976;8.306;2024-01-06T02:20:11;4.60;99.90
10316;DHT22;5203;48.976;8.306;2024-01-06T02:22:37;4.60;99.90
10316;DHT22;5203;48.976;8.306;2024-01-06T02:25:05;4.60;99.90
10316;DHT22;5203;48.976;8.306;2024-01-06T02:27:38;4.60;99.90
10316;DHT22;5203;48.976;8.306;2024-01-06T02:30:04;4.60;99.90
10316;DHT22;5203;48.976;8.306;2024-01-06T02:32:29;4.60;99.90
10316;DHT22;5203;48.976;8.306;2024-01-06T02:34:55;4.60;99.90
10316;DHT22;5203;48.976;8.306;2024-01-06T02:37:21;4.60;99.90
10316;DHT22;5203;48.976;8.306;2024-01-06T02:39:46;4.60;99.90
10316;DHT22;5203;48.976;8.306;2024-01-06T02:42:12;4.60;99.90
10316;DHT22;5203;48.976;8.306;2024-01-06T02:44:37;4.60;99.90
10316;DHT22;5203;48.976;8.306;2024-01-06T02:47:03;4.60;99.90
10316;DHT22;5203;48.976;8.306;2024-01-06T02:49:29;4.60;99.90
10316;DHT22;5203;48.976;8.306;2024-01-06T02:51:54;4.60;99.90
10316;DHT22;5203;48.976;8.306;2024-01-06T02:54:20;4.50;99.90
10316;DHT22;5203;48.976;8.306;2024-01-06T02:56:46;4.50;99.90
10316;DHT22;5203;48.976;8.306;2024-01-06T02:59:11;4.50;99.90
10316;DHT22;5203;48.976;8.306;2024-01-06T03:01:37;4.40;99.90
10316;DHT22;5203;48.976;8.306;2024-01-06T03:04:02;4.40;99.90
10316;DHT22;5203;48.976;8.306;2024-01-06T03:06:28;4.40;99.90
10316;DHT22;5203;48.976;8.306;2024-01-06T03:08:54;4.30;99.90
10316;DHT22;5203;48.976;8.306;2024-01-06T03:11:19;4.30;99.90
10316;DHT22;5203;48.976;8.306;2024-01-06T03:13:45;4.30;99.90
10316;DHT22;5203;48.976;8.306;2024-01-06T03:16:11;4.30;99.90
10316;DHT22;5203;48.976;8.306;2024-01-06T03:18:37;4.30;99.90
10316;DHT22;5203;48.976;8.306;2024-01-06T03:21:03;4.20;99.90
10316;DHT22;5203;48.976;8.306;2024-01-06T03:23:29;4.30;99.90
10316;DHT22;5203;48.976;8.306;2024-01-06T03:25:54;4.30;99.90
10316;DHT22;5203;48.976;8.306;2024-01-06T03:28:20;4.30;99.90
10316;DHT22;5203;48.976;8.306;2024-01-06T03:30:45;4.30;99.90
10316;DHT22;5203;48.976;8.306;2024-01-06T03:33:11;4.20;99.90
10316;DHT22;5203;48.976;8.306;2024-01-06T03:35:37;4.20;99.90
10316;DHT22;5203;48.976;8.306;2024-01-06T03:38:03;4.20;99.90
10316;DHT22;5203;48.976;8.306;2024-01-06T03:40:29;4.20;99.90
10316;DHT22;5203;48.976;8.306;2024-01-06T03:42:54;4.20;99.90
10316;DHT22;5203;48.976;8.306;2024-01-06T03:45:20;4.20;99.90
10316;DHT22;5203;48.976;8.306;2024-01-06T03:47:46;4.20;99.90
10316;DHT22;5203;48.976;8.306;2024-01-06T03:50:12;4.20;99.90
10316;DHT22;5203;48.976;8.306;2024-01-06T03:52:38;4.20;99.90
10316;DHT22;5203;48.976;8.306;2024-01-06T03:55:05;4.20;99.90
10316;DHT22;5203;48.976;8.306;2024-01-06T03:57:30;4.20;99.90
10316;DHT22;5203;48.976;8.306;2024-01-06T03:59:57;4.20;99.90
10316;DHT22;5203;48.976;8.306;2024-01-06T04:02:22;4.30;99.90
10316;DHT22;5203;48.976;8.306;2024-01-06T04:04:48;4.30;99.90
10316;DHT22;5203;48.976;8.306;2024-01-06T04:07:14;4.30;99.90
10316;DHT22;5203;48.976;8.306;2024-01-06T04:09:42;4.30;99.90
10316;DHT22;5203;48.976;8.306;2024-01-06T04:12:08;4.30;99.90
10316;DHT22;5203;48.976;8.306;2024-01-06T04:14:33;4.40;99.90
10316;DHT22;5203;48.976;8.306;2024-01-06T04:16:59;4.40;99.90
10316;DHT22;5203;48.976;8.306;2024-01-06T04:19:25;4.40;99.90
10316;DHT22;5203;48.976;8.306;2024-01-06T04:21:50;4.50;99.90
10316;DHT22;5203;48.976;8.306;2024-01-06T04:24:16;4.40;99.90
10316;DHT22;5203;48.976;8.306;2024-01-06T04:26:41;4.40;99.90
10316;DHT22;5203;48.976;8.306;2024-01-06T04:29:10;4.40;99.90
10316;DHT22;5203;48.976;8.306;2024-01-06T04:31:36;4.40;99.90
10316;DHT22;5203;48.976;8.306;2024-01-06T04:34:02;4.40;99.90
10316;DHT22;5203;48.976;8.306;2024-01-06T04:36:28;4.50;99.90
10316;DHT22;5203;48.976;8.306;2024-01-06T04:38:54;4.50;99.90
10316;DHT22;5203;48.976;8.306;2024-01-06T04:41:20;4.40;99.90
10316;DHT22;5203;48.976;8.306;2024-01-06T04:43:46;4.50;99.90
10316;DHT22;5203;48.976;8.306;2024-01-06T04:46:12;4.50;99.90
10316;DHT22;5203;48.976;8.306;2024-01-06T04:48:42;4.50;99.90
10316;DHT22;5203;48.976;8.306;2024-01-06T04:51:09;4.50;99.90
10316;DHT22;5203;48.976;8.306;2024-01-06T04:53:38;4.50;99.90
10316;DHT22;5203;48.976;8.306;2024-01-06T04:56:04;4.50;99.90
10316;DHT22;5203;48.976;8.306;2024-01-06T04:58:30;4.50;99.90
10316;DHT22;5203;48.976;8.306;2024-01-06T05:00:56;4.50;99.90
10316;DHT22;5203;48.976;8.306;2024-01-06T05:03:21;4.50;99.90
10316;DHT22;5203;48.976;8.306;2024-01-06T05:05:47;4.50;99.90
10316;DHT22;5203;48.976;8.306;2024-01-06T05:08:12;4.50;99.90
10316;DHT22;5203;48.976;8.306;2024-01-06T05:10:38;4.50;99.90
10316;DHT22;5203;48.976;8.306;2024-01-06T05:13:04;4.50;99.90
10316;DHT22;5203;48.976;8.306;2024-01-06T05:15:29;4.50;99.90
10316;DHT22;5203;48.976;8.306;2024-01-06T05:17:55;4.50;99.90
10316;DHT22;5203;48.976;8.306;2024-01-06T05:20:20;4.50;99.90
10316;DHT22;5203;48.976;8.306;2024-01-06T05:22:46;4.50;99.90
10316;DHT22;5203;48.976;8.306;2024-01-06T05:25:12;4.50;99.90
10316;DHT22;5203;48.976;8.306;2024-01-06T05:27:37;4.50;99.90
10316;DHT22;5203;48.976;8.306;2024-01-06T05:30:03;4.60;99.90
10316;DHT22;5203;48.976;8.306;2024-01-06T05:32:29;4.60;99.90
10316;DHT22;5203;48.976;8.306;2024-01-06T05:34:55;4.60;99.90
10316;DHT22;5203;48.976;8.306;2024-01-06T05:37:20;4.60;99.90
10316;DHT22;5203;48.976;8.306;2024-01-06T05:39:46;4.60;99.90
10316;DHT22;5203;48.976;8.306;2024-01-06T05:42:13;4.60;99.90
10316;DHT22;5203;48.976;8.306;2024-01-06T05:44:40;4.60;99.90
10316;DHT22;5203;48.976;8.306;2024-01-06T05:47:06;4.60;99.90
10316;DHT22;5203;48.976;8.306;2024-01-06T05:49:32;4.60;99.90
10316;DHT22;5203;48.976;8.306;2024-01-06T05:51:57;4.60;99.90
10316;DHT22;5203;48.976;8.306;2024-01-06T05:54:23;4.60;99.90
10316;DHT22;5203;48.976;8.306;2024-01-06T05:56:49;4.60;99.90
10316;DHT22;5203;48.976;8.306;2024-01-06T05:59:14;4.60;99.90
10316;DHT22;5203;48.976;8.306;2024-01-06T06:01:40;4.60;99.90
10316;DHT22;5203;48.976;8.306;2024-01-06T06:04:06;4.70;99.90
10316;DHT22;5203;48.976;8.306;2024-01-06T06:06:31;4.70;99.90
10316;DHT22;5203;48.976;8.306;2024-01-06T06:08:58;4.70;99.90
10316;DHT22;5203;48.976;8.306;2024-01-06T06:11:24;4.70;99.90
10316;DHT22;5203;48.976;8.306;2024-01-06T06:13:49;4.70;99.90
10316;DHT22;5203;48.976;8.306;2024-01-06T06:16:15;4.70;99.90
10316;DHT22;5203;48.976;8.306;2024-01-06T06:18:41;4.70;99.90
10316;DHT22;5203;48.976;8.306;2024-01-06T06:21:08;4.70;99.90
10316;DHT22;5203;48.976;8.306;2024-01-06T06:23:34;4.70;99.90
10316;DHT22;5203;48.976;8.306;2024-01-06T06:26:04;4.70;99.90
10316;DHT22;5203;48.976;8.306;2024-01-06T06:28:30;4.80;99.90
10316;DHT22;5203;48.976;8.306;2024-01-06T06:30:56;4.70;99.90
10316;DHT22;5203;48.976;8.306;2024-01-06T06:33:21;4.80;99.90
10316;DHT22;5203;48.976;8.306;2024-01-06T06:35:47;4.70;99.90
10316;DHT22;5203;48.976;8.306;2024-01-06T06:38:12;4.80;99.90
10316;DHT22;5203;48.976;8.306;2024-01-06T06:40:39;4.80;99.90
10316;DHT22;5203;48.976;8.306;2024-01-06T06:43:04;4.80;99.90
10316;DHT22;5203;48.976;8.306;2024-01-06T06:45:30;4.80;99.90
10316;DHT22;5203;48.976;8.306;2024-01-06T06:47:56;4.80;99.90
10316;DHT22;5203;48.976;8.306;2024-01-06T06:50:21;4.80;99.90
10316;DHT22;5203;48.976;8.306;2024-01-06T06:52:47;4.80;99.90
10316;DHT22;5203;48.976;8.306;2024-01-06T06:55:13;4.90;99.90
10316;DHT22;5203;48.976;8.306;2024-01-06T06:57:39;4.80;99.90
10316;DHT22;5203;48.976;8.306;2024-01-06T07:00:05;4.80;99.90
10316;DHT22;5203;48.976;8.306;2024-01-06T07:02:33;4.80;99.90
10316;DHT22;5203;48.976;8.306;2024-01-06T07:04:59;4.90;99.90
10316;DHT22;5203;48.976;8.306;2024-01-06T07:07:25;4.90;99.90
10316;DHT22;5203;48.976;8.306;2024-01-06T07:09:50;4.90;99.90
10316;DHT22;5203;48.976;8.306;2024-01-06T07:12:16;5.00;99.90
10316;DHT22;5203;48.976;8.306;2024-01-06T07:14:41;4.90;99.90
10316;DHT22;5203;48.976;8.306;2024-01-06T07:17:07;5.00;99.90
10316;DHT22;5203;48.976;8.306;2024-01-06T07:19:35;5.00;99.90
10316;DHT22;5203;48.976;8.306;2024-01-06T07:22:01;5.00;99.90
10316;DHT22;5203;48.976;8.306;2024-01-06T07:24:26;4.90;99.90
10316;DHT22;5203;48.976;8.306;2024-01-06T07:26:52;5.00;99.90
10316;DHT22;5203;48.976;8.306;2024-01-06T07:29:18;5.00;99.90
10316;DHT22;5203;48.976;8.306;2024-01-06T07:31:44;5.00;99.90
10316;DHT22;5203;48.976;8.306;2024-01-06T07:34:10;5.00;99.90
10316;DHT22;5203;48.976;8.306;2024-01-06T07:36:36;5.00;99.90
10316;DHT22;5203;48.976;8.306;2024-01-06T07:39:01;5.10;99.90
10316;DHT22;5203;48.976;8.306;2024-01-06T07:41:28;5.10;99.90
10316;DHT22;5203;48.976;8.306;2024-01-06T07:43:56;5.10;99.90
10316;DHT22;5203;48.976;8.306;2024-01-06T07:46:21;5.10;99.90
10316;DHT22;5203;48.976;8.306;2024-01-06T07:48:47;5.00;99.90
10316;DHT22;5203;48.976;8.306;2024-01-06T07:51:13;5.10;99.90
10316;DHT22;5203;48.976;8.306;2024-01-06T07:53:39;5.10;99.90
10316;DHT22;5203;48.976;8.306;2024-01-06T07:56:05;5.10;99.90
10316;DHT22;5203;48.976;8.306;2024-01-06T07:58:31;5.00;99.90
10316;DHT22;5203;48.976;8.306;2024-01-06T08:00:58;5.10;99.90
10316;DHT22;5203;48.976;8.306;2024-01-06T08:03:24;5.10;99.90
10316;DHT22;5203;48.976;8.306;2024-01-06T08:05:50;5.10;99.90
10316;DHT22;5203;48.976;8.306;2024-01-06T08:08:16;5.10;99.90
10316;DHT22;5203;48.976;8.306;2024-01-06T08:10:42;5.10;99.90
10316;DHT22;5203;48.976;8.306;2024-01-06T08:13:08;5.10;99.90
10316;DHT22;5203;48.976;8.306;2024-01-06T08:15:34;5.10;99.90
10316;DHT22;5203;48.976;8.306;2024-01-06T08:17:59;5.10;99.90
10316;DHT22;5203;48.976;8.306;2024-01-06T08:20:25;5.10;99.90
10316;DHT22;5203;48.976;8.306;2024-01-06T08:22:51;5.10;99.90
10316;DHT22;5203;48.976;8.306;2024-01-06T08:25:17;5.10;99.90
10316;DHT22;5203;48.976;8.306;2024-01-06T08:27:43;5.10;99.90
10316;DHT22;5203;48.976;8.306;2024-01-06T08:30:09;5.10;99.90
10316;DHT22;5203;48.976;8.306;2024-01-06T08:32:35;5.10;99.90
10316;DHT22;5203;48.976;8.306;2024-01-06T08:35:00;5.10;99.90
10316;DHT22;5203;48.976;8.306;2024-01-06T08:37:26;5.00;99.90
10316;DHT22;5203;48.976;8.306;2024-01-06T08:39:52;5.10;99.90
10316;DHT22;5203;48.976;8.306;2024-01-06T08:42:18;5.00;99.90
10316;DHT22;5203;48.976;8.306;2024-01-06T08:44:44;5.10;99.90
10316;DHT22;5203;48.976;8.306;2024-01-06T08:47:10;5.10;99.90
10316;DHT22;5203;48.976;8.306;2024-01-06T08:49:35;5.10;99.90
10316;DHT22;5203;48.976;8.306;2024-01-06T08:52:01;5.10;99.90
10316;DHT22;5203;48.976;8.306;2024-01-06T08:54:27;5.10;99.90
10316;DHT22;5203;48.976;8.306;2024-01-06T08:56:52;5.00;99.90
10316;DHT22;5203;48.976;8.306;2024-01-06T08:59:18;5.00;99.90
10316;DHT22;5203;48.976;8.306;2024-01-06T09:01:45;5.00;99.90
10316;DHT22;5203;48.976;8.306;2024-01-06T09:04:11;5.00;99.90
10316;DHT22;5203;48.976;8.306;2024-01-06T09:06:38;5.00;99.90
10316;DHT22;5203;48.976;8.306;2024-01-06T09:09:03;5.00;99.90
10316;DHT22;5203;48.976;8.306;2024-01-06T09:11:29;5.00;99.90
10316;DHT22;5203;48.976;8.306;2024-01-06T09:13:55;5.00;99.90
10316;DHT22;5203;48.976;8.306;2024-01-06T09:16:20;5.00;99.90
10316;DHT22;5203;48.976;8.306;2024-01-06T09:18:46;5.10;99.90
10316;DHT22;5203;48.976;8.306;2024-01-06T09:21:15;5.10;99.90
10316;DHT22;5203;48.976;8.306;2024-01-06T09:23:41;5.10;99.90
10316;DHT22;5203;48.976;8.306;2024-01-06T09:26:06;5.00;99.90
10316;DHT22;5203;48.976;8.306;2024-01-06T09:28:32;5.00;99.90
10316;DHT22;5203;48.976;8.306;2024-01-06T09:30:58;5.00;99.90
10316;DHT22;5203;48.976;8.306;2024-01-06T09:33:23;5.00;99.90
10316;DHT22;5203;48.976;8.306;2024-01-06T09:35:49;5.00;99.90
10316;DHT22;5203;48.976;8.306;2024-01-06T09:38:18;5.00;99.90
10316;DHT22;5203;48.976;8.306;2024-01-06T09:40:53;5.00;99.90
10316;DHT22;5203;48.976;8.306;2024-01-06T09:43:21;5.00;99.90
10316;DHT22;5203;48.976;8.306;2024-01-06T09:45:56;5.10;99.90
10316;DHT22;5203;48.976;8.306;2024-01-06T09:48:29;5.10;99.90
10316;DHT22;5203;48.976;8.306;2024-01-06T09:50:56;5.20;99.90
10316;DHT22;5203;48.976;8.306;2024-01-06T09:53:25;5.20;99.90
10316;DHT22;5203;48.976;8.306;2024-01-06T09:55:51;5.20;99.90
10316;DHT22;5203;48.976;8.306;2024-01-06T09:58:17;5.20;99.90
10316;DHT22;5203;48.976;8.306;2024-01-06T10:00:43;5.20;99.90
10316;DHT22;5203;48.976;8.306;2024-01-06T10:03:09;5.30;99.90
10316;DHT22;5203;48.976;8.306;2024-01-06T10:05:35;5.30;99.90
10316;DHT22;5203;48.976;8.306;2024-01-06T10:08:01;5.20;99.90
10316;DHT22;5203;48.976;8.306;2024-01-06T10:10:29;5.30;99.90
10316;DHT22;5203;48.976;8.306;2024-01-06T10:12:55;5.30;99.90
10316;DHT22;5203;48.976;8.306;2024-01-06T10:15:20;5.20;99.90
10316;DHT22;5203;48.976;8.306;2024-01-06T10:17:46;5.30;99.90
10316;DHT22;5203;48.976;8.306;2024-01-06T10:20:12;5.30;99.90
10316;DHT22;5203;48.976;8.306;2024-01-06T10:22:41;5.30;99.90
10316;DHT22;5203;48.976;8.306;2024-01-06T10:25:09;5.30;99.90
10316;DHT22;5203;48.976;8.306;2024-01-06T10:27:36;5.30;99.90
10316;DHT22;5203;48.976;8.306;2024-01-06T10:30:02;5.30;99.90
10316;DHT22;5203;48.976;8.306;2024-01-06T10:32:31;5.40;99.90
10316;DHT22;5203;48.976;8.306;2024-01-06T10:35:00;5.40;99.90
10316;DHT22;5203;48.976;8.306;2024-01-06T10:37:29;5.40;99.90
10316;DHT22;5203;48.976;8.306;2024-01-06T10:40:18;5.30;99.90
10316;DHT22;5203;48.976;8.306;2024-01-06T10:42:45;5.30;99.90
10316;DHT22;5203;48.976;8.306;2024-01-06T10:45:14;5.40;99.90
10316;DHT22;5203;48.976;8.306;2024-01-06T10:47:43;5.40;99.90
10316;DHT22;5203;48.976;8.306;2024-01-06T10:50:10;5.40;99.90
10316;DHT22;5203;48.976;8.306;2024-01-06T10:52:38;5.40;99.90
10316;DHT22;5203;48.976;8.306;2024-01-06T10:55:05;5.40;99.90
10316;DHT22;5203;48.976;8.306;2024-01-06T10:57:31;5.40;99.90
10316;DHT22;5203;48.976;8.306;2024-01-06T10:59:58;5.50;99.90
10316;DHT22;5203;48.976;8.306;2024-01-06T11:02:26;5.50;99.90
10316;DHT22;5203;48.976;8.306;2024-01-06T11:04:52;5.50;99.90
10316;DHT22;5203;48.976;8.306;2024-01-06T11:07:22;5.50;99.90
10316;DHT22;5203;48.976;8.306;2024-01-06T11:10:04;5.50;99.90
10316;DHT22;5203;48.976;8.306;2024-01-06T11:12:31;5.50;99.90
10316;DHT22;5203;48.976;8.306;2024-01-06T11:14:57;5.40;99.90
10316;DHT22;5203;48.976;8.306;2024-01-06T11:17:50;5.50;99.90
10316;DHT22;5203;48.976;8.306;2024-01-06T11:20:19;5.50;99.90
10316;DHT22;5203;48.976;8.306;2024-01-06T11:22:45;5.60;99.90
10316;DHT22;5203;48.976;8.306;2024-01-06T11:25:16;5.60;99.90
10316;DHT22;5203;48.976;8.306;2024-01-06T11:27:43;5.60;99.90
10316;DHT22;5203;48.976;8.306;2024-01-06T11:30:25;5.60;99.90
10316;DHT22;5203;48.976;8.306;2024-01-06T11:32:56;5.60;99.90
10316;DHT22;5203;48.976;8.306;2024-01-06T11:35:28;5.60;99.90
10316;DHT22;5203;48.976;8.306;2024-01-06T11:37:57;5.60;99.90
10316;DHT22;5203;48.976;8.306;2024-01-06T11:43:06;5.60;99.90
10316;DHT22;5203;48.976;8.306;2024-01-06T11:45:40;5.50;99.90
10316;DHT22;5203;48.976;8.306;2024-01-06T11:48:08;5.60;99.90
10316;DHT22;5203;48.976;8.306;2024-01-06T11:50:38;5.50;99.90
10316;DHT22;5203;48.976;8.306;2024-01-06T11:53:10;5.50;99.90
10316;DHT22;5203;48.976;8.306;2024-01-06T11:55:38;5.60;99.90
10316;DHT22;5203;48.976;8.306;2024-01-06T11:58:04;5.60;99.90
10316;DHT22;5203;48.976;8.306;2024-01-06T12:00:34;5.60;99.90
10316;DHT22;5203;48.976;8.306;2024-01-06T12:03:02;5.70;99.90
10316;DHT22;5203;48.976;8.306;2024-01-06T12:05:28;5.60;99.90
10316;DHT22;5203;48.976;8.306;2024-01-06T12:07:58;5.70;99.90
10316;DHT22;5203;48.976;8.306;2024-01-06T12:10:25;5.60;99.90
10316;DHT22;5203;48.976;8.306;2024-01-06T12:13:11;5.60;99.90
10316;DHT22;5203;48.976;8.306;2024-01-06T12:15:37;5.60;99.90
10316;DHT22;5203;48.976;8.306;2024-01-06T12:18:05;5.60;99.90
10316;DHT22;5203;48.976;8.306;2024-01-06T12:20:31;5.60;99.90
10316;DHT22;5203;48.976;8.306;2024-01-06T12:22:57;5.60;99.90
10316;DHT22;5203;48.976;8.306;2024-01-06T12:25:25;5.60;99.90
10316;DHT22;5203;48.976;8.306;2024-01-06T12:27:52;5.60;99.90
10316;DHT22;5203;48.976;8.306;2024-01-06T12:30:21;5.60;99.90
10316;DHT22;5203;48.976;8.306;2024-01-06T12:32:48;5.60;99.90
10316;DHT22;5203;48.976;8.306;2024-01-06T12:35:20;5.50;99.90
10316;DHT22;5203;48.976;8.306;2024-01-06T12:37:45;5.50;99.90
10316;DHT22;5203;48.976;8.306;2024-01-06T12:40:16;5.60;99.90
10316;DHT22;5203;48.976;8.306;2024-01-06T12:42:43;5.60;99.90
10316;DHT22;5203;48.976;8.306;2024-01-06T12:45:09;5.60;99.90
10316;DHT22;5203;48.976;8.306;2024-01-06T12:47:35;5.70;99.90
10316;DHT22;5203;48.976;8.306;2024-01-06T12:50:02;5.70;99.90
10316;DHT22;5203;48.976;8.306;2024-01-06T12:52:29;5.70;99.90
10316;DHT22;5203;48.976;8.306;2024-01-06T12:54:57;5.70;99.90
10316;DHT22;5203;48.976;8.306;2024-01-06T12:57:23;5.70;99.90
10316;DHT22;5203;48.976;8.306;2024-01-06T12:59:49;5.70;99.90
10316;DHT22;5203;48.976;8.306;2024-01-06T13:02:18;5.70;99.90
10316;DHT22;5203;48.976;8.306;2024-01-06T13:04:46;5.80;99.90
10316;DHT22;5203;48.976;8.306;2024-01-06T13:07:12;5.70;99.90
10316;DHT22;5203;48.976;8.306;2024-01-06T13:09:38;5.70;99.90
10316;DHT22;5203;48.976;8.306;2024-01-06T13:12:05;5.70;99.90
10316;DHT22;5203;48.976;8.306;2024-01-06T13:14:30;5.70;99.90
10316;DHT22;5203;48.976;8.306;2024-01-06T13:16:57;5.70;99.90
10316;DHT22;5203;48.976;8.306;2024-01-06T13:19:23;5.70;99.90
10316;DHT22;5203;48.976;8.306;2024-01-06T13:21:49;5.70;99.90
10316;DHT22;5203;48.976;8.306;2024-01-06T13:24:15;5.70;99.90
10316;DHT22;5203;48.976;8.306;2024-01-06T13:26:40;5.70;99.90
10316;DHT22;5203;48.976;8.306;2024-01-06T13:29:09;5.70;99.90
10316;DHT22;5203;48.976;8.306;2024-01-06T13:31:34;5.70;99.90
10316;DHT22;5203;48.976;8.306;2024-01-06T13:34:00;5.70;99.90
10316;DHT22;5203;48.976;8.306;2024-01-06T13:36:25;5.60;99.90
10316;DHT22;5203;48.976;8.306;2024-01-06T13:38:51;5.60;99.90
10316;DHT22;5203;48.976;8.306;2024-01-06T13:41:17;5.60;99.90
10316;DHT22;5203;48.976;8.306;2024-01-06T13:43:43;5.70;99.90
10316;DHT22;5203;48.976;8.306;2024-01-06T13:46:10;5.70;99.90
10316;DHT22;5203;48.976;8.306;2024-01-06T13:48:35;5.70;99.90
10316;DHT22;5203;48.976;8.306;2024-01-06T13:51:01;5.70;99.90
10316;DHT22;5203;48.976;8.306;2024-01-06T13:53:27;5.70;99.90
10316;DHT22;5203;48.976;8.306;2024-01-06T13:55:55;5.60;99.90
10316;DHT22;5203;48.976;8.306;2024-01-06T13:58:21;5.70;99.90
10316;DHT22;5203;48.976;8.306;2024-01-06T14:00:47;5.60;99.90
10316;DHT22;5203;48.976;8.306;2024-01-06T14:03:13;5.60;99.90
10316;DHT22;5203;48.976;8.306;2024-01-06T14:05:39;5.70;99.90
10316;DHT22;5203;48.976;8.306;2024-01-06T14:08:06;5.70;99.90
10316;DHT22;5203;48.976;8.306;2024-01-06T14:10:31;5.70;99.90
10316;DHT22;5203;48.976;8.306;2024-01-06T14:12:58;5.70;99.90
10316;DHT22;5203;48.976;8.306;2024-01-06T14:15:24;5.70;99.90
10316;DHT22;5203;48.976;8.306;2024-01-06T14:17:54;5.70;99.90
10316;DHT22;5203;48.976;8.306;2024-01-06T14:20:20;5.70;99.90
10316;DHT22;5203;48.976;8.306;2024-01-06T14:22:46;5.80;99.90
10316;DHT22;5203;48.976;8.306;2024-01-06T14:25:12;5.70;99.90
10316;DHT22;5203;48.976;8.306;2024-01-06T14:27:39;5.70;99.90
10316;DHT22;5203;48.976;8.306;2024-01-06T14:30:05;5.70;99.90
10316;DHT22;5203;48.976;8.306;2024-01-06T14:32:32;5.70;99.90
10316;DHT22;5203;48.976;8.306;2024-01-06T14:34:58;5.70;99.90
10316;DHT22;5203;48.976;8.306;2024-01-06T14:37:24;5.70;99.90
10316;DHT22;5203;48.976;8.306;2024-01-06T14:39:50;5.80;99.90
10316;DHT22;5203;48.976;8.306;2024-01-06T14:42:15;5.70;99.90
10316;DHT22;5203;48.976;8.306;2024-01-06T14:44:41;5.80;99.90
10316;DHT22;5203;48.976;8.306;2024-01-06T14:47:07;5.80;99.90
10316;DHT22;5203;48.976;8.306;2024-01-06T14:49:33;5.80;99.90
10316;DHT22;5203;48.976;8.306;2024-01-06T14:52:00;5.70;99.90
10316;DHT22;5203;48.976;8.306;2024-01-06T14:54:27;5.70;99.90
10316;DHT22;5203;48.976;8.306;2024-01-06T14:56:56;5.70;99.90
10316;DHT22;5203;48.976;8.306;2024-01-06T14:59:23;5.70;99.90
10316;DHT22;5203;48.976;8.306;2024-01-06T15:01:49;5.70;99.90
10316;DHT22;5203;48.976;8.306;2024-01-06T15:04:17;5.70;99.90
10316;DHT22;5203;48.976;8.306;2024-01-06T15:06:44;5.70;99.90
10316;DHT22;5203;48.976;8.306;2024-01-06T15:09:12;5.70;99.90
10316;DHT22;5203;48.976;8.306;2024-01-06T15:11:38;5.70;99.90
10316;DHT22;5203;48.976;8.306;2024-01-06T15:14:07;5.70;99.90
10316;DHT22;5203;48.976;8.306;2024-01-06T15:16:34;5.70;99.90
10316;DHT22;5203;48.976;8.306;2024-01-06T15:19:03;5.70;99.90
10316;DHT22;5203;48.976;8.306;2024-01-06T15:21:29;5.70;99.90
10316;DHT22;5203;48.976;8.306;2024-01-06T15:23:59;5.70;99.90
10316;DHT22;5203;48.976;8.306;2024-01-06T15:26:25;5.70;99.90
10316;DHT22;5203;48.976;8.306;2024-01-06T15:28:51;5.70;99.90
10316;DHT22;5203;48.976;8.306;2024-01-06T15:31:17;5.70;99.90
10316;DHT22;5203;48.976;8.306;2024-01-06T15:33:42;5.70;99.90
10316;DHT22;5203;48.976;8.306;2024-01-06T15:36:08;5.70;99.90
10316;DHT22;5203;48.976;8.306;2024-01-06T15:38:34;5.70;99.90
10316;DHT22;5203;48.976;8.306;2024-01-06T15:41:00;5.70;99.90
10316;DHT22;5203;48.976;8.306;2024-01-06T15:43:26;5.60;99.90
10316;DHT22;5203;48.976;8.306;2024-01-06T15:45:52;5.60;99.90
10316;DHT22;5203;48.976;8.306;2024-01-06T15:48:19;5.70;99.90
10316;DHT22;5203;48.976;8.306;2024-01-06T15:50:45;5.70;99.90
10316;DHT22;5203;48.976;8.306;2024-01-06T15:53:11;5.70;99.90
10316;DHT22;5203;48.976;8.306;2024-01-06T15:55:40;5.60;99.90
10316;DHT22;5203;48.976;8.306;2024-01-06T15:58:06;5.60;99.90
10316;DHT22;5203;48.976;8.306;2024-01-06T16:00:32;5.60;99.90